createdAt,value
2023-04-23T00:00:07.149Z,2.38
2023-04-23T00:02:39.496Z,2.45
2023-04-23T00:05:06.967Z,2.25
2023-04-23T00:07:34.045Z,2.20
2023-04-23T00:10:08.416Z,2.38
2023-04-23T00:12:35.314Z,2.33
2023-04-23T00:15:02.135Z,2.42
2023-04-23T00:17:28.666Z,1.92
2023-04-23T00:19:55.186Z,2.05
2023-04-23T00:22:22.089Z,2.50
2023-04-23T00:24:48.778Z,2.50
2023-04-23T00:27:15.333Z,2.08
2023-04-23T00:29:45.912Z,2.38
2023-04-23T00:32:14.569Z,1.92
2023-04-23T00:34:41.399Z,2.30
2023-04-23T00:37:08.177Z,2.25
2023-04-23T00:39:35.865Z,2.00
2023-04-23T00:42:11.602Z,1.90
2023-04-23T00:47:05.662Z,2.50
2023-04-23T00:49:33.182Z,2.22
2023-04-23T00:52:00.649Z,2.08
2023-04-23T00:54:27.932Z,1.85
2023-04-23T00:56:55.463Z,1.90
2023-04-23T00:59:22.362Z,2.13
2023-04-23T01:01:48.800Z,1.95
2023-04-23T01:04:17.859Z,2.28
2023-04-23T01:06:47.087Z,1.90
2023-04-23T01:09:13.976Z,1.92
2023-04-23T01:11:42.817Z,1.98
2023-04-23T01:14:09.910Z,1.98
2023-04-23T01:16:40.418Z,2.00
2023-04-23T01:19:08.161Z,2.47
2023-04-23T01:21:38.218Z,2.15
2023-04-23T01:24:05.529Z,2.00
2023-04-23T01:26:32.125Z,1.90
2023-04-23T01:28:59.917Z,2.05
2023-04-23T01:31:28.390Z,2.20
2023-04-23T01:33:55.938Z,1.98
2023-04-23T01:36:23.769Z,2.10
2023-04-23T01:38:51.588Z,2.10
2023-04-23T01:41:19.995Z,1.67
2023-04-23T01:43:46.902Z,2.33
2023-04-23T01:46:13.662Z,1.80
2023-04-23T01:48:40.636Z,2.13
2023-04-23T01:51:08.000Z,1.90
2023-04-23T01:53:34.907Z,2.13
2023-04-23T01:56:02.371Z,1.98
2023-04-23T01:58:29.045Z,2.22
2023-04-23T02:00:56.286Z,2.42
2023-04-23T02:03:23.357Z,2.20
2023-04-23T02:05:50.744Z,2.30
2023-04-23T02:08:17.261Z,2.20
2023-04-23T02:10:43.718Z,2.00
2023-04-23T02:13:13.066Z,2.38
2023-04-23T02:15:40.905Z,2.50
2023-04-23T02:18:08.883Z,2.63
2023-04-23T02:20:38.743Z,2.75
2023-04-23T02:23:06.076Z,2.90
2023-04-23T02:25:33.301Z,3.22
2023-04-23T02:28:02.030Z,2.92
2023-04-23T02:30:28.595Z,2.70
2023-04-23T02:32:55.559Z,2.70
2023-04-23T02:35:23.973Z,3.03
2023-04-23T02:37:51.008Z,3.00
2023-04-23T02:40:18.037Z,3.20
2023-04-23T02:42:44.648Z,3.40
2023-04-23T02:45:11.403Z,3.15
2023-04-23T02:47:38.171Z,3.50
2023-04-23T02:50:06.431Z,3.00
2023-04-23T02:52:36.162Z,3.05
2023-04-23T02:55:04.844Z,3.45
2023-04-23T02:57:31.427Z,3.47
2023-04-23T02:59:57.992Z,3.50
2023-04-23T03:02:33.311Z,3.15
2023-04-23T03:05:00.199Z,3.25
2023-04-23T03:07:26.691Z,2.92
2023-04-23T03:09:53.648Z,3.20
2023-04-23T03:12:20.362Z,3.10
2023-04-23T03:14:47.090Z,3.03
2023-04-23T03:17:13.958Z,2.60
2023-04-23T03:19:40.774Z,3.10
2023-04-23T03:22:07.510Z,3.35
2023-04-23T03:24:34.803Z,3.08
2023-04-23T03:27:01.807Z,3.10
2023-04-23T03:29:28.491Z,2.90
2023-04-23T03:31:55.305Z,2.63
2023-04-23T03:34:21.926Z,2.90
2023-04-23T03:36:49.808Z,3.10
2023-04-23T03:39:18.966Z,3.22
2023-04-23T03:41:49.895Z,3.17
2023-04-23T03:44:26.672Z,3.35
2023-04-23T03:46:53.926Z,3.17
2023-04-23T03:49:20.857Z,3.05
2023-04-23T03:51:47.491Z,2.70
2023-04-23T03:54:14.624Z,3.25
2023-04-23T03:57:16.756Z,2.60
2023-04-23T04:00:02.595Z,3.03
2023-04-23T04:02:40.411Z,3.20
2023-04-23T04:05:07.842Z,3.00
2023-04-23T04:07:35.535Z,2.83
2023-04-23T04:10:04.395Z,3.13
2023-04-23T04:12:30.996Z,2.72
2023-04-23T04:14:57.603Z,3.13
2023-04-23T04:17:24.154Z,2.90
2023-04-23T04:19:50.736Z,2.90
2023-04-23T04:22:17.494Z,2.65
2023-04-23T04:24:44.416Z,2.72
2023-04-23T04:27:11.628Z,2.92
2023-04-23T04:29:51.307Z,2.55
2023-04-23T04:32:18.086Z,2.92
2023-04-23T04:34:44.815Z,2.60
2023-04-23T04:37:11.630Z,2.65
2023-04-23T04:39:38.218Z,2.65
2023-04-23T04:42:06.933Z,2.53
2023-04-23T04:44:33.570Z,2.20
2023-04-23T04:47:00.303Z,2.40
2023-04-23T04:49:27.014Z,2.20
2023-04-23T04:51:54.289Z,2.60
2023-04-23T04:54:21.897Z,2.13
2023-04-23T04:56:48.586Z,2.53
2023-04-23T04:59:15.234Z,1.92
2023-04-23T05:01:42.190Z,2.13
2023-04-23T05:04:08.925Z,2.15
2023-04-23T05:06:35.766Z,2.47
2023-04-23T05:09:02.510Z,2.22
2023-04-23T05:11:29.079Z,2.33
2023-04-23T05:13:56.742Z,2.42
2023-04-23T05:16:24.351Z,2.75
2023-04-23T05:18:52.109Z,2.35
2023-04-23T05:21:19.586Z,2.20
2023-04-23T05:23:46.214Z,2.30
2023-04-23T05:26:12.798Z,2.20
2023-04-23T05:28:39.253Z,2.38
2023-04-23T05:31:05.941Z,2.47
2023-04-23T05:33:39.232Z,2.58
2023-04-23T05:36:13.326Z,2.20
2023-04-23T05:38:40.081Z,2.45
2023-04-23T05:41:06.659Z,2.42
2023-04-23T05:43:36.395Z,2.10
2023-04-23T05:46:04.856Z,2.33
2023-04-23T05:48:33.719Z,2.03
2023-04-23T05:51:01.143Z,2.10
2023-04-23T05:53:36.550Z,2.30
2023-04-23T05:56:03.601Z,2.90
2023-04-23T05:58:41.754Z,2.72
2023-04-23T06:01:08.995Z,2.05
2023-04-23T06:03:37.030Z,2.88
2023-04-23T06:06:03.969Z,2.67
2023-04-23T06:08:31.078Z,2.60
2023-04-23T06:10:58.198Z,3.08
2023-04-23T06:13:28.627Z,3.45
2023-04-23T06:15:55.249Z,3.00
2023-04-23T06:18:27.622Z,3.15
2023-04-23T06:20:56.689Z,2.88
2023-04-23T06:23:23.680Z,3.25
2023-04-23T06:25:50.220Z,4.18
2023-04-23T06:28:17.172Z,3.80
2023-04-23T06:31:02.830Z,4.07
2023-04-23T06:33:29.896Z,3.97
2023-04-23T06:35:56.710Z,3.65
2023-04-23T06:38:24.536Z,3.80
2023-04-23T06:40:51.156Z,3.53
2023-04-23T06:43:18.392Z,3.38
2023-04-23T06:46:05.531Z,3.28
2023-04-23T06:48:33.490Z,3.70
2023-04-23T06:51:00.091Z,3.35
2023-04-23T06:53:30.299Z,3.15
2023-04-23T06:55:56.772Z,2.95
2023-04-23T06:58:27.445Z,2.95
2023-04-23T07:00:55.152Z,2.13
2023-04-23T07:03:26.734Z,2.75
2023-04-23T07:05:53.918Z,2.60
2023-04-23T07:08:23.218Z,2.30
2023-04-23T07:10:50.434Z,2.20
2023-04-23T07:13:20.650Z,1.88
2023-04-23T07:15:49.148Z,2.08
2023-04-23T07:18:15.687Z,1.75
2023-04-23T07:20:44.137Z,1.80
2023-04-23T07:23:11.508Z,1.33
2023-04-23T07:25:38.139Z,1.50
2023-04-23T07:28:05.466Z,1.50
2023-04-23T07:30:32.188Z,1.70
2023-04-23T07:32:59.308Z,1.63
2023-04-23T07:35:27.272Z,1.50
2023-04-23T07:37:56.101Z,1.30
2023-04-23T07:40:23.240Z,1.50
2023-04-23T07:42:50.757Z,1.65
2023-04-23T07:45:17.588Z,1.50
2023-04-23T07:47:45.844Z,1.40
2023-04-23T07:50:13.853Z,1.40
2023-04-23T07:52:41.699Z,1.20
2023-04-23T07:55:09.696Z,1.30
2023-04-23T07:57:36.692Z,1.23
2023-04-23T08:00:07.206Z,1.00
2023-04-23T08:02:40.085Z,1.10
2023-04-23T08:05:09.240Z,1.00
2023-04-23T08:07:36.239Z,0.80
2023-04-23T08:10:07.558Z,0.90
2023-04-23T08:12:35.812Z,1.05
2023-04-23T08:15:02.799Z,1.05
2023-04-23T08:17:38.658Z,1.00
2023-04-23T08:20:08.799Z,1.38
2023-04-23T08:22:37.663Z,1.00
2023-04-23T08:25:04.710Z,1.08
2023-04-23T08:27:31.404Z,1.00
2023-04-23T08:29:58.118Z,1.20
2023-04-23T08:32:26.181Z,1.08
2023-04-23T08:34:53.163Z,1.20
2023-04-23T08:37:30.320Z,1.23
2023-04-23T08:39:57.726Z,1.20
2023-04-23T08:42:27.104Z,1.30
2023-04-23T08:44:54.714Z,1.10
2023-04-23T08:47:24.051Z,0.90
2023-04-23T08:49:53.822Z,1.10
2023-04-23T08:52:23.619Z,1.05
2023-04-23T08:54:52.201Z,1.10
2023-04-23T08:57:19.618Z,1.10
2023-04-23T08:59:47.704Z,1.00
2023-04-23T09:02:15.900Z,1.00
2023-04-23T09:04:44.899Z,0.90
2023-04-23T09:07:12.537Z,0.82
2023-04-23T09:09:41.540Z,1.00
2023-04-23T09:12:08.877Z,1.05
2023-04-23T09:14:36.153Z,1.08
2023-04-23T09:17:03.297Z,1.00
2023-04-23T09:19:30.712Z,0.95
2023-04-23T09:24:34.331Z,0.80
2023-04-23T09:27:00.984Z,0.63
2023-04-23T09:29:28.952Z,1.20
2023-04-23T09:31:56.737Z,1.20
2023-04-23T09:34:23.852Z,1.10
2023-04-23T09:36:51.420Z,0.85
2023-04-23T09:39:19.542Z,0.80
2023-04-23T09:41:48.936Z,0.90
2023-04-23T09:44:19.568Z,1.20
2023-04-23T09:46:46.448Z,1.10
2023-04-23T09:49:13.423Z,1.13
2023-04-23T09:51:41.439Z,1.13
2023-04-23T09:54:12.069Z,1.45
2023-04-23T09:56:39.392Z,1.27
2023-04-23T09:59:32.070Z,1.13
2023-04-23T10:02:04.560Z,1.27
2023-04-23T10:04:31.189Z,1.45
2023-04-23T10:07:17.180Z,1.52
2023-04-23T10:09:45.658Z,1.38
2023-04-23T10:12:31.333Z,1.30
2023-04-23T10:15:00.740Z,1.33
2023-04-23T10:17:28.584Z,1.58
2023-04-23T10:19:55.768Z,1.10
2023-04-23T10:22:23.144Z,1.50
2023-04-23T10:24:52.835Z,1.27
2023-04-23T10:29:51.570Z,1.40
2023-04-23T10:32:20.121Z,1.20
2023-04-23T10:34:46.769Z,1.48
2023-04-23T10:37:15.175Z,1.50
2023-04-23T10:39:44.800Z,1.65
2023-04-23T10:42:14.018Z,1.40
2023-04-23T10:47:13.029Z,1.40
2023-04-23T10:49:39.686Z,2.10
2023-04-23T10:52:19.712Z,1.50
2023-04-23T10:54:49.367Z,1.00
2023-04-23T10:57:15.890Z,1.00
2023-04-23T10:59:53.918Z,0.90
2023-04-23T11:02:20.943Z,0.95
2023-04-23T11:04:55.152Z,0.90
2023-04-23T11:07:25.349Z,0.90
2023-04-23T11:09:54.191Z,1.92
2023-04-23T11:12:20.598Z,1.25
2023-04-23T11:14:48.915Z,1.10
2023-04-23T11:17:16.297Z,1.23
2023-04-23T11:20:02.901Z,1.05
2023-04-23T11:22:58.934Z,1.05
2023-04-23T11:25:26.965Z,1.00
2023-04-23T11:27:54.768Z,1.05
2023-04-23T11:30:26.434Z,1.10
2023-04-23T11:32:54.571Z,1.10
2023-04-23T11:35:23.264Z,1.10
2023-04-23T11:37:49.844Z,1.10
2023-04-23T11:40:20.227Z,1.40
2023-04-23T11:42:47.714Z,1.25
2023-04-23T11:45:17.343Z,0.70
2023-04-23T11:47:44.373Z,0.80
2023-04-23T11:50:11.014Z,1.13
2023-04-23T11:52:39.512Z,0.90
2023-04-23T11:55:07.259Z,0.90
2023-04-23T11:57:40.824Z,1.02
2023-04-23T12:00:33.734Z,0.90
2023-04-23T12:03:01.525Z,2.35
2023-04-23T12:05:28.109Z,1.15
2023-04-23T12:07:55.238Z,2.70
2023-04-23T12:10:22.722Z,0.90
2023-04-23T12:12:49.794Z,1.20
2023-04-23T12:15:16.273Z,1.02
2023-04-23T12:17:43.364Z,1.10
2023-04-23T12:20:12.700Z,1.00
2023-04-23T12:22:40.662Z,0.93
2023-04-23T12:25:09.375Z,1.10
2023-04-23T12:27:40.147Z,0.98
2023-04-23T12:30:08.053Z,1.15
2023-04-23T12:32:35.013Z,1.35
2023-04-23T12:35:06.074Z,1.20
2023-04-23T12:37:36.972Z,1.00
2023-04-23T12:40:07.108Z,1.10
2023-04-23T12:42:34.481Z,1.15
2023-04-23T12:45:08.507Z,0.90
2023-04-23T12:47:35.590Z,1.40
2023-04-23T12:50:04.375Z,1.40
2023-04-23T12:52:31.274Z,1.17
2023-04-23T12:55:00.507Z,1.15
2023-04-23T12:57:27.688Z,1.20
2023-04-23T12:59:55.100Z,0.93
2023-04-23T13:02:22.099Z,0.80
2023-04-23T13:04:48.784Z,0.98
2023-04-23T13:07:15.407Z,0.88
2023-04-23T13:09:42.240Z,1.10
2023-04-23T13:12:09.284Z,1.17
2023-04-23T13:14:36.088Z,1.38
2023-04-23T13:17:02.731Z,1.10
2023-04-23T13:19:29.362Z,1.13
2023-04-23T13:21:55.787Z,1.17
2023-04-23T13:24:22.575Z,1.25
2023-04-23T13:26:49.078Z,1.00
2023-04-23T13:29:16.037Z,1.00
2023-04-23T13:31:42.535Z,1.25
2023-04-23T13:34:08.999Z,1.02
2023-04-23T13:36:35.858Z,1.15
2023-04-23T13:39:02.956Z,1.10
2023-04-23T13:41:29.408Z,0.80
2023-04-23T13:43:56.309Z,0.95
2023-04-23T13:46:22.920Z,0.90
2023-04-23T13:48:49.440Z,0.95
2023-04-23T13:51:33.105Z,1.00
2023-04-23T13:54:01.067Z,0.87
2023-04-23T13:56:31.185Z,0.90
2023-04-23T13:59:18.227Z,0.80
2023-04-23T14:01:47.392Z,1.00
2023-04-23T14:04:14.934Z,0.93
2023-04-23T14:06:42.799Z,2.28
2023-04-23T14:09:10.880Z,1.00
2023-04-23T14:11:39.632Z,0.77
2023-04-23T14:14:07.416Z,0.90
2023-04-23T14:16:34.931Z,0.90
2023-04-23T14:19:01.513Z,0.90
2023-04-23T14:21:28.230Z,1.02
2023-04-23T14:24:00.887Z,0.90
2023-04-23T14:26:41.198Z,1.33
2023-04-23T14:29:23.199Z,0.73
2023-04-23T14:31:51.750Z,0.80
2023-04-23T14:34:18.252Z,0.82
2023-04-23T14:36:46.707Z,0.85
2023-04-23T14:39:13.158Z,0.85
2023-04-23T14:41:41.047Z,0.70
2023-04-23T14:44:07.678Z,0.82
2023-04-23T14:46:34.425Z,0.60
2023-04-23T14:49:01.061Z,0.98
2023-04-23T14:51:27.568Z,1.17
2023-04-23T14:53:56.415Z,0.95
2023-04-23T14:56:23.373Z,0.90
2023-04-23T14:58:50.457Z,0.88
2023-04-23T15:01:19.382Z,1.00
2023-04-23T15:03:48.061Z,0.88
2023-04-23T15:06:14.926Z,1.40
2023-04-23T15:08:42.848Z,1.08
2023-04-23T15:11:13.806Z,1.20
2023-04-23T15:13:45.330Z,1.30
2023-04-23T15:16:40.567Z,0.98
2023-04-23T15:19:12.575Z,0.82
2023-04-23T15:21:39.313Z,1.08
2023-04-23T15:24:07.804Z,1.13
2023-04-23T15:26:37.079Z,0.95
2023-04-23T15:29:08.658Z,0.80
2023-04-23T15:31:37.096Z,1.02
2023-04-23T15:34:06.296Z,0.90
2023-04-23T15:36:34.785Z,1.00
2023-04-23T15:39:01.517Z,0.90
2023-04-23T15:41:29.721Z,1.02
2023-04-23T15:43:56.664Z,1.10
2023-04-23T15:46:23.145Z,0.88
2023-04-23T15:48:50.941Z,1.05
2023-04-23T15:51:17.803Z,1.25
2023-04-23T15:53:44.455Z,1.08
2023-04-23T15:56:11.791Z,0.88
2023-04-23T15:58:38.958Z,1.00
2023-04-23T16:01:07.354Z,1.10
2023-04-23T16:03:36.297Z,1.00
2023-04-23T16:06:04.167Z,0.90
2023-04-23T16:08:32.717Z,1.00
2023-04-23T16:11:00.376Z,0.80
2023-04-23T16:13:29.007Z,1.00
2023-04-23T16:15:57.242Z,1.10
2023-04-23T16:18:25.403Z,0.85
2023-04-23T16:20:52.942Z,0.90
2023-04-23T16:23:21.733Z,1.05
2023-04-23T16:25:50.127Z,1.33
2023-04-23T16:28:22.754Z,1.30
2023-04-23T16:30:49.246Z,1.50
2023-04-23T16:33:17.386Z,1.08
2023-04-23T16:35:45.287Z,1.10
2023-04-23T16:38:12.890Z,1.20
2023-04-23T16:40:48.266Z,1.30
2023-04-23T16:43:14.710Z,1.08
2023-04-23T16:45:42.843Z,1.20
2023-04-23T16:48:12.872Z,1.33
2023-04-23T16:50:42.784Z,1.20
2023-04-23T16:53:09.908Z,1.20
2023-04-23T16:55:39.282Z,1.25
2023-04-23T16:58:05.907Z,1.30
2023-04-23T17:00:32.679Z,1.23
2023-04-23T17:02:59.452Z,1.23
2023-04-23T17:05:26.086Z,1.20
2023-04-23T17:07:53.247Z,1.33
2023-04-23T17:10:19.999Z,1.40
2023-04-23T17:12:46.457Z,1.23
2023-04-23T17:15:13.195Z,1.30
2023-04-23T17:17:40.678Z,1.02
2023-04-23T17:20:35.128Z,1.10
2023-04-23T17:23:07.345Z,1.10
2023-04-23T17:25:36.139Z,1.20
2023-04-23T17:28:05.170Z,1.13
2023-04-23T17:30:33.509Z,1.05
2023-04-23T17:33:00.813Z,1.60
2023-04-23T17:35:28.460Z,1.73
2023-04-23T17:37:54.929Z,2.28
2023-04-23T17:40:22.572Z,2.60
2023-04-23T17:42:49.366Z,2.53
2023-04-23T17:45:15.960Z,2.47
2023-04-23T17:47:42.588Z,4.90
2023-04-23T17:50:11.647Z,7.72
2023-04-23T17:52:41.014Z,4.65
2023-04-23T17:55:08.394Z,2.10
2023-04-23T17:57:35.294Z,1.33
2023-04-23T18:00:09.234Z,1.63
2023-04-23T18:02:40.752Z,1.20
2023-04-23T18:05:08.392Z,1.20
2023-04-23T18:07:35.460Z,1.35
2023-04-23T18:10:03.062Z,1.23
2023-04-23T18:12:29.991Z,1.40
2023-04-23T18:14:56.938Z,1.80
2023-04-23T18:17:24.095Z,1.73
2023-04-23T18:19:51.258Z,1.70
2023-04-23T18:22:17.828Z,1.77
2023-04-23T18:24:58.725Z,1.50
2023-04-23T18:27:25.659Z,1.70
2023-04-23T18:29:52.103Z,1.90
2023-04-23T18:32:31.351Z,2.10
2023-04-23T18:35:02.031Z,1.95
2023-04-23T18:37:33.243Z,2.28
2023-04-23T18:40:00.142Z,2.10
2023-04-23T18:42:26.651Z,2.45
2023-04-23T18:44:54.069Z,2.75
2023-04-23T18:47:20.709Z,2.50
2023-04-23T18:49:52.798Z,2.60
2023-04-23T18:52:19.481Z,2.53
2023-04-23T18:54:45.931Z,2.33
2023-04-23T18:57:12.417Z,2.30
2023-04-23T18:59:40.135Z,2.58
2023-04-23T19:02:06.943Z,2.67
2023-04-23T19:04:34.161Z,2.58
2023-04-23T19:07:00.915Z,2.72
2023-04-23T19:09:27.492Z,3.10
2023-04-23T19:11:54.270Z,5.63
2023-04-23T19:14:20.939Z,3.78
2023-04-23T19:16:47.493Z,3.70
2023-04-23T19:19:14.095Z,3.55
2023-04-23T19:21:40.917Z,2.88
2023-04-23T19:24:07.397Z,3.05
2023-04-23T19:26:33.892Z,3.08
2023-04-23T19:29:00.467Z,2.90
2023-04-23T19:31:28.738Z,2.90
2023-04-23T19:33:56.203Z,2.88
2023-04-23T19:36:23.004Z,3.17
2023-04-23T19:38:49.515Z,2.90
2023-04-23T19:41:16.123Z,3.20
2023-04-23T19:43:42.736Z,3.50
2023-04-23T19:46:09.279Z,3.80
2023-04-23T19:48:36.336Z,4.20
2023-04-23T19:51:03.313Z,3.92
2023-04-23T19:53:29.816Z,3.55
2023-04-23T19:55:56.510Z,3.95
2023-04-23T19:58:22.958Z,3.78
2023-04-23T20:00:49.435Z,4.32
2023-04-23T20:03:16.589Z,4.18
2023-04-23T20:05:44.714Z,4.30
2023-04-23T20:08:15.669Z,3.92
2023-04-23T20:10:42.637Z,3.88
2023-04-23T20:13:09.089Z,3.97
2023-04-23T20:15:36.791Z,4.53
2023-04-23T20:18:06.558Z,4.20
2023-04-23T20:20:35.627Z,4.28
2023-04-23T20:23:02.180Z,4.22
2023-04-23T20:25:28.937Z,4.25
2023-04-23T20:27:56.181Z,4.30
2023-04-23T20:30:22.638Z,4.10
2023-04-23T20:32:49.441Z,4.50
2023-04-23T20:35:15.993Z,3.90
2023-04-23T20:37:43.093Z,3.92
2023-04-23T20:40:10.722Z,3.88
2023-04-23T20:42:39.350Z,3.83
2023-04-23T20:45:07.979Z,4.05
2023-04-23T20:47:34.504Z,3.75
2023-04-23T20:50:01.286Z,4.10
2023-04-23T20:52:28.484Z,4.22
2023-04-23T20:54:55.129Z,4.70
2023-04-23T20:57:21.658Z,4.00
2023-04-23T20:59:48.275Z,4.40
2023-04-23T21:02:15.243Z,4.25
2023-04-23T21:04:41.786Z,3.95
2023-04-23T21:07:08.340Z,4.40
2023-04-23T21:09:35.214Z,4.53
2023-04-23T21:12:02.266Z,4.53
2023-04-23T21:14:29.177Z,3.97
2023-04-23T21:16:56.842Z,3.70
2023-04-23T21:19:23.347Z,3.90
2023-04-23T21:21:49.848Z,3.90
2023-04-23T21:24:16.284Z,3.90
2023-04-23T21:26:42.833Z,4.10
2023-04-23T21:29:09.335Z,4.10
2023-04-23T21:31:43.955Z,3.97
2023-04-23T21:34:10.552Z,3.58
2023-04-23T21:36:37.242Z,3.80
2023-04-23T21:39:08.052Z,3.83
2023-04-23T21:41:34.625Z,4.00
2023-04-23T21:44:01.251Z,3.50
2023-04-23T21:46:27.949Z,3.92
2023-04-23T21:48:54.514Z,3.55
2023-04-23T21:51:25.341Z,4.00
2023-04-23T21:53:51.910Z,3.75
2023-04-23T21:56:18.413Z,3.45
2023-04-23T21:58:45.583Z,3.63
2023-04-23T22:01:12.189Z,3.67
2023-04-23T22:03:42.462Z,3.95
2023-04-23T22:06:12.874Z,3.55
2023-04-23T22:08:40.411Z,3.53
2023-04-23T22:11:08.073Z,3.47
2023-04-23T22:13:34.656Z,3.97
2023-04-23T22:16:01.775Z,3.45
2023-04-23T22:18:30.909Z,3.90
2023-04-23T22:20:59.882Z,3.55
2023-04-23T22:23:26.387Z,4.18
2023-04-23T22:25:52.868Z,3.97
2023-04-23T22:28:19.299Z,3.50
2023-04-23T22:30:45.886Z,3.80
2023-04-23T22:33:12.844Z,4.05
2023-04-23T22:35:39.331Z,4.05
2023-04-23T22:38:05.754Z,3.55
2023-04-23T22:40:32.443Z,3.75
2023-04-23T22:42:58.864Z,3.50
2023-04-23T22:45:25.424Z,3.70
2023-04-23T22:47:52.174Z,3.63
2023-04-23T22:50:18.705Z,3.60
2023-04-23T22:52:45.406Z,3.20
2023-04-23T22:55:11.929Z,3.90
2023-04-23T22:57:38.417Z,3.55
2023-04-23T23:00:07.559Z,3.67
2023-04-23T23:02:34.237Z,3.53
2023-04-23T23:05:01.023Z,2.80
2023-04-23T23:07:27.434Z,2.55
2023-04-23T23:09:53.966Z,2.10
2023-04-23T23:12:20.496Z,1.88
2023-04-23T23:14:47.104Z,1.52
2023-04-23T23:17:13.725Z,1.48
2023-04-23T23:19:40.614Z,1.20
2023-04-23T23:22:07.304Z,1.40
2023-04-23T23:24:34.681Z,1.00
2023-04-23T23:27:01.511Z,0.93
2023-04-23T23:29:28.010Z,0.90
2023-04-23T23:31:56.322Z,0.65
2023-04-23T23:34:22.870Z,0.70
2023-04-23T23:36:50.985Z,0.50
2023-04-23T23:39:19.975Z,0.63
2023-04-23T23:41:47.116Z,0.55
2023-04-23T23:44:13.761Z,0.60
2023-04-23T23:46:40.731Z,0.60
2023-04-23T23:49:08.163Z,0.50
2023-04-23T23:51:34.747Z,0.43
2023-04-23T23:54:01.337Z,0.60
2023-04-23T23:56:27.954Z,0.68
2023-04-23T23:58:54.440Z,0.50
